Time;durP1;ratioP1;P1;durP2;ratioP2;P2;SDS_P1;SDS_P2;PMS_P1;PMS_P2;Temp;Humidity;BMP_temperature;BMP_pressure;BME280_temperature;BME280_humidity;BME280_pressure;Samples;Min_cycle;Max_cycle;Signal;HPM_P1;HPM_P2
2021/12/09 00:01:41;;;;;;;64.92;31.05;;;;;;;-3.32;84.55;99736.88;1790501;80;21485;-73
2021/12/09 00:04:11;;;;;;;67.12;31.65;;;;;;;-3.32;84.55;99732.97;1756943;78;21585;-74
2021/12/09 00:06:37;;;;;;;65.97;31.35;;;;;;;-3.33;84.55;99726.08;1858881;77;20959;-74
2021/12/09 00:09:13;;;;;;;63.80;32.95;;;;;;;-3.33;84.55;99720.02;1825093;78;21143;-73
2021/12/09 00:11:46;;;;;;;70.08;31.20;;;;;;;-3.34;84.56;99723.58;1825112;78;21326;-73
2021/12/09 00:14:20;;;;;;;67.03;32.67;;;;;;;-3.35;84.55;99716.69;1824222;78;20997;-73
2021/12/09 00:16:47;;;;;;;69.58;31.93;;;;;;;-3.36;84.58;99716.31;1823197;78;21046;-73
2021/12/09 00:19:13;;;;;;;70.30;33.00;;;;;;;-3.36;84.56;99704.58;1824844;78;20998;-73
2021/12/09 00:21:38;;;;;;;81.92;35.83;;;;;;;-3.36;84.57;99706.73;1824844;78;21944;-73
2021/12/09 00:24:04;;;;;;;65.08;33.25;;;;;;;-3.37;84.57;99701.14;1824876;78;27116;-73
2021/12/09 00:26:31;;;;;;;69.65;33.63;;;;;;;-3.38;84.58;99686.92;1824609;78;26499;-73
2021/12/09 00:28:57;;;;;;;66.35;32.65;;;;;;;-3.39;84.57;99696.97;1824629;78;21449;-73
2021/12/09 00:31:24;;;;;;;75.00;34.65;;;;;;;-3.41;84.58;99704.06;1825011;78;26471;-74
2021/12/09 00:33:50;;;;;;;68.78;29.57;;;;;;;-3.41;84.61;99705.37;1825920;78;21072;-74
2021/12/09 00:36:26;;;;;;;69.42;32.63;;;;;;;-3.42;84.60;99694.10;1827865;78;20987;-73
2021/12/09 00:38:44;;;;;;;74.17;35.13;;;;;;;-3.41;84.61;99707.97;1826192;78;22193;-73
2021/12/09 00:41:12;;;;;;;62.48;32.00;;;;;;;-3.43;84.62;99698.09;1828370;78;28258;-73
2021/12/09 00:43:39;;;;;;;71.28;33.85;;;;;;;-3.42;84.63;99689.35;1819531;78;21462;-74
2021/12/09 00:46:05;;;;;;;67.67;32.48;;;;;;;-3.43;84.64;99695.49;1811251;78;21385;-74
2021/12/09 00:48:31;;;;;;;65.12;30.92;;;;;;;-3.42;84.65;99699.78;1796426;79;21049;-74
2021/12/09 00:50:59;;;;;;;65.78;30.50;;;;;;;-3.41;84.67;99697.05;1795716;79;26276;-74
2021/12/09 00:53:25;;;;;;;70.45;34.90;;;;;;;-3.42;84.68;99688.89;1784321;79;21066;-74
2021/12/09 00:55:51;;;;;;;69.10;33.55;;;;;;;-3.43;84.68;99685.06;1773789;80;27034;-74
2021/12/09 00:58:17;;;;;;;69.00;31.93;;;;;;;-3.41;84.71;99688.43;1773842;80;21748;-73
2021/12/09 01:00:43;;;;;;;63.17;27.00;;;;;;;-3.41;84.73;99691.84;1795754;79;26664;-74
2021/12/09 01:03:09;;;;;;;61.20;31.45;;;;;;;-3.39;84.75;99673.52;1795658;79;25801;-74
2021/12/09 01:05:35;;;;;;;66.12;31.33;;;;;;;-3.39;84.74;99678.27;1764166;81;28724;-74
2021/12/09 01:08:01;;;;;;;68.35;31.50;;;;;;;-3.40;84.75;99667.92;1795764;79;26332;-74
2021/12/09 01:10:28;;;;;;;71.05;35.28;;;;;;;-3.39;84.77;99673.52;1795713;79;21006;-74
2021/12/09 01:12:54;;;;;;;71.50;30.48;;;;;;;-3.39;84.79;99673.52;1795608;79;21057;-74
2021/12/09 01:15:21;;;;;;;64.00;30.45;;;;;;;-3.39;84.79;99673.52;1795323;79;21688;-74
2021/12/09 01:17:47;;;;;;;62.70;31.45;;;;;;;-3.37;84.80;99667.72;1795361;79;21077;-74
2021/12/09 01:20:14;;;;;;;72.75;33.60;;;;;;;-3.36;84.82;99664.19;1795905;79;20994;-74
2021/12/09 01:22:42;;;;;;;67.60;33.15;;;;;;;-3.35;84.82;99662.80;1795284;79;21199;-74
2021/12/09 01:25:11;;;;;;;63.90;32.67;;;;;;;-3.34;84.83;99665.75;1795625;79;21002;-74
2021/12/09 01:27:40;;;;;;;61.60;30.77;;;;;;;-3.34;84.84;99655.81;1794711;79;21455;-74
2021/12/09 01:30:11;;;;;;;73.22;32.42;;;;;;;-3.33;84.85;99651.79;1795794;79;21009;-74
2021/12/09 01:32:36;;;;;;;60.23;31.37;;;;;;;-3.30;84.86;99654.66;1794972;80;21466;-74
2021/12/09 01:35:04;;;;;;;61.60;29.92;;;;;;;-3.31;84.87;99651.23;1795855;79;21167;-74
2021/12/09 01:37:30;;;;;;;60.28;31.55;;;;;;;-3.30;84.87;99659.41;1796098;79;21013;-74
2021/12/09 01:39:56;;;;;;;57.10;28.62;;;;;;;-3.30;84.87;99652.05;1796409;79;20966;-74
2021/12/09 01:42:23;;;;;;;61.50;32.03;;;;;;;-3.29;84.88;99651.95;1796158;79;28719;-74
2021/12/09 01:44:49;;;;;;;63.08;29.50;;;;;;;-3.29;84.90;99662.38;1796304;79;21001;-73
2021/12/09 01:47:15;;;;;;;64.80;31.48;;;;;;;-3.28;84.89;99664.53;1796203;79;21783;-73
2021/12/09 01:49:41;;;;;;;50.35;23.90;;;;;;;-3.28;84.91;99671.05;1796053;79;27154;-73
2021/12/09 01:52:07;;;;;;;67.62;29.82;;;;;;;-3.27;84.91;99680.55;1830229;77;25914;-73
2021/12/09 01:54:33;;;;;;;62.73;30.08;;;;;;;-3.26;84.93;99682.19;1814812;79;28222;-73
2021/12/09 01:56:59;;;;;;;62.27;29.85;;;;;;;-3.26;84.94;99682.19;1827645;78;26526;-74
2021/12/09 01:59:25;;;;;;;61.42;29.40;;;;;;;-3.28;84.94;99689.29;1827820;78;21932;-74
2021/12/09 02:01:51;;;;;;;63.13;31.42;;;;;;;-3.30;84.93;99680.72;1827252;78;21007;-74
2021/12/09 02:04:17;;;;;;;65.03;31.73;;;;;;;-3.30;84.93;99685.93;1827992;78;25814;-74
2021/12/09 02:06:44;;;;;;;61.33;29.55;;;;;;;-3.30;84.95;99682.86;1827729;78;28159;-73
2021/12/09 02:09:12;;;;;;;52.55;25.75;;;;;;;-3.29;84.97;99685.00;1827787;78;21546;-73
2021/12/09 02:11:39;;;;;;;66.47;29.30;;;;;;;-3.31;84.98;99692.95;1827627;78;21140;-74
2021/12/09 02:14:06;;;;;;;61.05;28.60;;;;;;;-3.31;84.99;99694.71;1827617;78;21023;-73
2021/12/09 02:16:32;;;;;;;59.10;28.75;;;;;;;-3.32;85.00;99682.60;1827777;78;21704;-73
2021/12/09 02:18:58;;;;;;;57.67;29.27;;;;;;;-3.32;85.01;99685.20;1827218;78;21957;-73
2021/12/09 02:21:27;;;;;;;62.55;28.38;;;;;;;-3.32;85.02;99696.48;1827911;78;21022;-73
2021/12/09 02:23:59;;;;;;;61.42;29.27;;;;;;;-3.32;85.02;99699.55;1827783;78;21188;-73
2021/12/09 02:26:29;;;;;;;66.95;31.70;;;;;;;-3.30;85.02;99697.66;1827714;78;21013;-73
2021/12/09 02:28:56;;;;;;;64.15;31.02;;;;;;;-3.29;85.02;99690.22;1827750;78;20991;-73
2021/12/09 02:31:22;;;;;;;65.10;29.30;;;;;;;-3.30;85.02;99678.95;1827677;78;21593;-73
2021/12/09 02:33:48;;;;;;;67.08;30.12;;;;;;;-3.29;85.04;99677.19;1828149;78;21073;-73
2021/12/09 02:36:14;;;;;;;60.10;29.85;;;;;;;-3.29;85.04;99676.72;1832399;78;21887;-73
2021/12/09 02:38:43;;;;;;;67.00;31.17;;;;;;;-3.30;85.04;99671.59;1832731;78;26688;-73
2021/12/09 02:41:15;;;;;;;66.50;31.13;;;;;;;-3.31;85.06;99663.43;1832915;78;21475;-74
2021/12/09 02:43:41;;;;;;;71.87;32.75;;;;;;;-3.29;85.06;99670.67;1816932;79;21006;-74
2021/12/09 02:46:07;;;;;;;65.30;31.50;;;;;;;-3.31;85.08;99666.88;1818535;78;21491;-74
2021/12/09 02:48:34;;;;;;;73.40;31.27;;;;;;;-3.31;85.08;99669.95;1817004;79;21909;-74
2021/12/09 02:51:00;;;;;;;64.35;29.30;;;;;;;-3.31;85.07;99669.48;1818795;78;21976;-74
2021/12/09 02:53:27;;;;;;;72.42;34.80;;;;;;;-3.30;85.07;99700.27;1816956;79;21018;-74
2021/12/09 02:55:53;;;;;;;73.00;33.95;;;;;;;-3.29;85.10;99711.07;1819170;78;20987;-74
2021/12/09 02:58:19;;;;;;;69.25;31.97;;;;;;;-3.27;85.09;99707.42;1817362;79;27308;-74
2021/12/09 03:01:14;;;;;;;70.62;32.10;;;;;;;-3.24;85.11;99703.80;1819190;78;21698;-74
2021/12/09 03:03:50;;;;;;;74.25;34.48;;;;;;;-3.23;85.10;99711.97;1817111;79;21039;-74
2021/12/09 03:06:13;;;;;;;69.80;33.05;;;;;;;-3.22;85.10;99698.00;1818428;78;21050;-74
2021/12/09 03:08:41;;;;;;;71.10;34.03;;;;;;;-3.22;85.10;99698.00;1817472;79;21018;-74
2021/12/09 03:11:10;;;;;;;71.12;31.20;;;;;;;-3.24;85.10;99698.13;1818767;78;20979;-74
2021/12/09 03:13:36;;;;;;;73.78;31.93;;;;;;;-3.23;85.11;99698.93;1817577;79;21514;-74
2021/12/09 03:16:03;;;;;;;70.78;33.40;;;;;;;-3.24;85.11;99693.38;1818762;78;21267;-74
2021/12/09 03:18:29;;;;;;;59.15;26.90;;;;;;;-3.25;85.11;99690.39;1816971;79;21026;-74
2021/12/09 03:20:55;;;;;;;74.97;31.37;;;;;;;-3.27;85.10;99701.40;1791430;78;21579;-74
2021/12/09 03:23:22;;;;;;;65.00;30.05;;;;;;;-3.28;85.11;99684.92;1816955;79;26590;-74
2021/12/09 03:25:49;;;;;;;63.20;27.65;;;;;;;-3.27;85.10;99685.76;1818715;78;21452;-74
2021/12/09 03:28:16;;;;;;;67.22;29.52;;;;;;;-3.28;85.11;99686.69;1817083;79;21575;-74
2021/12/09 03:30:42;;;;;;;62.25;30.60;;;;;;;-3.27;85.11;99689.17;1791629;78;21035;-73
2021/12/09 03:33:08;;;;;;;70.32;31.25;;;;;;;-3.27;85.11;99679.24;1817051;79;28579;-74
2021/12/09 03:35:34;;;;;;;66.85;31.23;;;;;;;-3.26;85.12;99685.64;1817488;78;27431;-74
2021/12/09 03:38:00;;;;;;;64.58;30.95;;;;;;;-3.24;85.11;99686.86;1818649;78;21804;-74
2021/12/09 03:40:26;;;;;;;66.70;30.40;;;;;;;-3.24;85.11;99683.78;1818847;78;26595;-73
2021/12/09 03:42:52;;;;;;;71.77;32.48;;;;;;;-3.22;85.11;99686.27;1818979;78;25765;-74
2021/12/09 03:45:18;;;;;;;59.83;28.12;;;;;;;-3.21;85.10;99687.48;1818742;78;28186;-74
2021/12/09 03:47:44;;;;;;;62.08;29.82;;;;;;;-3.22;85.11;99683.67;1817233;79;26932;-74
2021/12/09 03:50:11;;;;;;;64.42;29.63;;;;;;;-3.22;85.11;99687.58;1818841;78;21942;-74
2021/12/09 03:52:37;;;;;;;64.40;27.93;;;;;;;-3.23;85.11;99694.55;1816758;79;21015;-74
2021/12/09 03:55:05;;;;;;;73.35;32.13;;;;;;;-3.22;85.09;99694.09;1818964;78;25782;-74
2021/12/09 03:57:32;;;;;;;71.37;32.17;;;;;;;-3.21;85.10;99703.59;1817212;79;21054;-74
2021/12/09 03:59:58;;;;;;;61.80;29.27;;;;;;;-3.21;85.10;99687.95;1818870;78;21486;-74
2021/12/09 04:02:24;;;;;;;65.35;31.27;;;;;;;-3.20;85.10;99684.42;1817117;79;21144;-74
2021/12/09 04:04:50;;;;;;;72.80;32.98;;;;;;;-3.19;85.11;99676.48;1818937;78;26745;-74
2021/12/09 04:07:16;;;;;;;68.72;33.05;;;;;;;-3.20;85.11;99681.31;1817128;79;20979;-74
2021/12/09 04:09:42;;;;;;;77.50;34.70;;;;;;;-3.19;85.12;99676.94;1818905;78;28732;-74
2021/12/09 04:12:09;;;;;;;119.37;52.00;;;;;;;-3.18;85.12;99665.59;1816947;79;20990;-74
2021/12/09 04:14:36;;;;;;;74.80;35.50;;;;;;;-3.17;85.10;99663.36;1818754;78;21238;-74
2021/12/09 04:17:02;;;;;;;82.12;35.52;;;;;;;-3.18;85.10;99657.77;1816973;79;20987;-74
2021/12/09 04:19:28;;;;;;;73.45;31.65;;;;;;;-3.17;85.10;99660.28;1818878;78;21535;-74
2021/12/09 04:21:54;;;;;;;79.12;34.90;;;;;;;-3.16;85.10;99666.31;1817253;79;28120;-74
2021/12/09 04:24:20;;;;;;;77.25;34.63;;;;;;;-3.16;85.10;99651.97;1818987;78;26495;-74
2021/12/09 04:26:49;;;;;;;71.15;34.50;;;;;;;-3.16;85.11;99649.36;1817178;78;22520;-74
2021/12/09 04:29:15;;;;;;;71.77;30.35;;;;;;;-3.16;85.11;99653.27;1818610;78;20995;-74
2021/12/09 04:31:41;;;;;;;64.55;28.07;;;;;;;-3.17;85.09;99650.32;1817048;78;21034;-74
2021/12/09 04:34:07;;;;;;;72.87;34.50;;;;;;;-3.17;85.10;99655.53;1819004;78;20975;-74
2021/12/09 04:36:33;;;;;;;72.22;33.18;;;;;;;-3.17;85.09;99652.92;1816456;78;26505;-74
2021/12/09 04:38:59;;;;;;;70.12;30.85;;;;;;;-3.17;85.09;99656.84;1818615;78;21136;-74
2021/12/09 04:41:25;;;;;;;66.17;30.32;;;;;;;-3.18;85.11;99665.59;1817162;79;27247;-74
2021/12/09 04:43:51;;;;;;;72.67;35.17;;;;;;;-3.19;85.10;99667.82;1818875;78;25782;-74
2021/12/09 04:46:17;;;;;;;78.97;36.35;;;;;;;-3.19;85.11;99668.66;1789116;78;28193;-74
2021/12/09 04:48:43;;;;;;;73.42;30.65;;;;;;;-3.18;85.11;99679.92;1798863;78;26886;-73
2021/12/09 04:51:09;;;;;;;71.22;28.50;;;;;;;-3.18;85.10;99679.92;1792511;80;22096;-74
2021/12/09 04:53:35;;;;;;;66.47;33.08;;;;;;;-3.17;85.09;99680.30;1824567;78;21041;-74
2021/12/09 04:56:01;;;;;;;73.60;31.55;;;;;;;-3.17;85.09;99675.09;1792584;80;25822;-74
2021/12/09 04:58:27;;;;;;;73.28;32.10;;;;;;;-3.18;85.10;99675.55;1822267;78;28145;-74
2021/12/09 05:00:55;;;;;;;69.50;31.42;;;;;;;-3.17;85.08;99676.39;1796169;79;21443;-74
2021/12/09 05:03:21;;;;;;;77.82;33.28;;;;;;;-3.18;85.09;99679.92;1824061;78;21608;-74
2021/12/09 05:05:50;;;;;;;75.55;32.90;;;;;;;-3.17;85.09;99671.17;1792422;80;26755;-74
2021/12/09 05:08:20;;;;;;;73.92;34.33;;;;;;;-3.16;85.07;99672.83;1822821;78;20962;-74
2021/12/09 05:11:12;;;;;;;60.55;28.05;;;;;;;-3.15;85.08;99678.41;1796193;79;20988;-74
2021/12/09 05:13:37;;;;;;;71.25;33.02;;;;;;;-3.15;85.09;99674.50;1824194;78;21017;-74
2021/12/09 05:16:04;;;;;;;76.80;33.63;;;;;;;-3.14;85.09;99682.70;1795878;79;21070;-74
2021/12/09 05:18:33;;;;;;;79.37;35.45;;;;;;;-3.13;85.08;99683.08;1824713;77;20990;-74
2021/12/09 05:21:00;;;;;;;83.80;36.38;;;;;;;-3.14;85.06;99677.48;1792618;80;26273;-74
2021/12/09 05:23:26;;;;;;;75.97;37.67;;;;;;;-3.13;85.08;99691.71;1822466;78;21530;-74
2021/12/09 05:25:52;;;;;;;85.75;39.20;;;;;;;-3.13;85.07;99694.31;1796077;79;27089;-74
2021/12/09 05:28:19;;;;;;;80.45;37.38;;;;;;;-3.10;85.07;99703.73;1824712;78;21057;-74
2021/12/09 05:33:31;;;;;;;77.53;35.55;;;;;;;-3.09;85.08;99692.34;1824797;78;20970;-74
2021/12/09 05:35:57;;;;;;;82.17;35.92;;;;;;;-3.08;85.08;99701.84;1796158;79;21464;-74
2021/12/09 05:38:24;;;;;;;84.05;37.28;;;;;;;-3.08;85.08;99690.11;1827784;78;21691;-74
2021/12/09 05:40:50;;;;;;;77.82;35.95;;;;;;;-3.07;85.07;99694.40;1796636;79;21902;-74
2021/12/09 05:43:16;;;;;;;81.95;35.70;;;;;;;-3.07;85.07;99703.06;1828040;78;26729;-73
2021/12/09 05:45:42;;;;;;;78.55;36.77;;;;;;;-3.07;85.06;99699.61;1796411;79;21089;-73
2021/12/09 05:48:10;;;;;;;78.40;34.35;;;;;;;-3.06;85.07;99702.56;1828373;78;21400;-74
2021/12/09 05:50:37;;;;;;;73.70;33.63;;;;;;;-3.03;85.07;99705.00;1796453;79;21006;-74
2021/12/09 05:53:03;;;;;;;81.65;34.40;;;;;;;-3.05;85.05;99705.55;1828108;78;21142;-73
2021/12/09 05:55:29;;;;;;;77.12;31.77;;;;;;;-3.04;85.04;99699.41;1796363;79;26725;-73
2021/12/09 05:57:55;;;;;;;78.15;36.28;;;;;;;-3.04;85.05;99695.50;1828051;78;26582;-74
2021/12/09 06:00:21;;;;;;;71.50;34.48;;;;;;;-3.06;85.06;99698.66;1796507;79;28113;-73
2021/12/09 06:02:47;;;;;;;85.12;38.35;;;;;;;-3.05;85.04;99693.81;1827732;77;26555;-74
2021/12/09 06:05:13;;;;;;;71.02;32.00;;;;;;;-3.03;85.04;99695.38;1796608;79;21869;-74
2021/12/09 06:07:39;;;;;;;81.00;36.17;;;;;;;-3.01;85.06;99692.67;1828034;78;26707;-74
2021/12/09 06:10:07;;;;;;;66.90;32.15;;;;;;;-3.01;85.05;99697.89;1796575;79;25909;-74
2021/12/09 06:12:34;;;;;;;79.80;36.15;;;;;;;-3.01;85.04;99705.72;1828003;78;20966;-74
2021/12/09 06:15:01;;;;;;;67.50;30.60;;;;;;;-3.00;85.04;99707.40;1796423;79;21034;-74
2021/12/09 06:17:27;;;;;;;116.57;50.20;;;;;;;-2.98;85.02;99711.19;1828020;78;21506;-73
2021/12/09 06:19:53;;;;;;;80.87;38.33;;;;;;;-2.98;85.03;99700.30;1796295;79;21019;-73
2021/12/09 06:22:19;;;;;;;97.05;42.08;;;;;;;-2.97;85.02;99701.97;1827916;78;25912;-73
2021/12/09 06:24:46;;;;;;;129.27;53.95;;;;;;;-2.96;85.04;99704.95;1788805;79;28667;-73
2021/12/09 06:27:13;;;;;;;126.78;55.03;;;;;;;-2.97;85.02;99695.45;1806486;78;21486;-73
2021/12/09 06:29:39;;;;;;;202.78;86.55;;;;;;;-2.97;85.02;99700.67;1784943;79;21093;-73
2021/12/09 06:32:06;;;;;;;100.72;44.53;;;;;;;-2.96;85.03;99712.78;1805889;78;21096;-73
2021/12/09 06:34:33;;;;;;;178.12;84.00;;;;;;;-2.95;85.02;99698.78;1782703;79;21471;-73
2021/12/09 06:36:59;;;;;;;231.75;107.63;;;;;;;-2.94;85.03;99706.98;1813716;78;21525;-73
2021/12/09 06:39:25;;;;;;;113.40;54.85;;;;;;;-2.94;85.02;99705.68;1759168;80;25034;-73
2021/12/09 06:41:51;;;;;;;236.77;113.47;;;;;;;-2.93;85.01;99690.87;1764880;81;20946;-73
2021/12/09 06:44:17;;;;;;;100.75;48.17;;;;;;;-2.95;85.01;99684.44;1764835;81;20998;-73
2021/12/09 06:46:43;;;;;;;296.02;130.25;;;;;;;-2.95;84.98;99697.48;1764887;81;21010;-73
2021/12/09 06:49:09;;;;;;;221.25;94.22;;;;;;;-2.95;85.00;99692.27;1824586;78;28489;-73
2021/12/09 06:51:34;;;;;;;210.28;89.37;;;;;;;-2.95;84.97;99684.44;1824399;78;27314;-73
2021/12/09 06:54:00;;;;;;;180.97;78.72;;;;;;;-2.95;84.97;99694.88;1792265;79;21112;-73
2021/12/09 06:56:32;;;;;;;138.88;60.00;;;;;;;-2.94;84.97;99684.81;1816762;78;26688;-73
2021/12/09 06:58:57;;;;;;;173.60;72.90;;;;;;;-2.91;84.97;99679.84;1777666;80;20991;-73
2021/12/09 07:01:23;;;;;;;173.35;68.90;;;;;;;-2.90;84.98;99695.87;1771274;80;28301;-74
2021/12/09 07:03:51;;;;;;;144.60;62.93;;;;;;;-2.90;84.96;99682.84;1765402;79;25859;-73
2021/12/09 07:06:17;;;;;;;97.70;46.90;;;;;;;-2.91;84.96;99678.08;1794677;78;21147;-74
2021/12/09 07:08:46;;;;;;;588.48;167.10;;;;;;;-2.90;84.95;99679.77;1760953;81;20997;-73
2021/12/09 07:11:15;;;;;;;402.10;124.90;;;;;;;-2.89;84.94;99702.77;1760939;80;21039;-73
2021/12/09 07:13:41;;;;;;;692.55;215.00;;;;;;;-2.90;84.95;99707.16;1794553;78;21018;-72
2021/12/09 07:16:07;;;;;;;655.95;204.18;;;;;;;-2.89;84.94;99723.17;1761024;81;20973;-73
2021/12/09 07:18:33;;;;;;;539.78;158.32;;;;;;;-2.90;84.92;99722.80;1761194;80;21189;-74
2021/12/09 07:20:59;;;;;;;552.85;165.92;;;;;;;-2.89;84.92;99724.48;1798210;78;20942;-73
2021/12/09 07:23:25;;;;;;;381.52;110.68;;;;;;;-2.86;84.92;99722.97;1776887;80;25853;-73
2021/12/09 07:25:51;;;;;;;406.95;121.87;;;;;;;-2.85;84.92;99719.40;1775728;79;28775;-73
2021/12/09 07:28:17;;;;;;;327.30;99.65;;;;;;;-2.84;84.92;99718.47;1773364;80;26592;-73
2021/12/09 07:30:43;;;;;;;375.02;110.03;;;;;;;-2.82;84.91;99718.38;1789725;80;21560;-73
2021/12/09 07:33:09;;;;;;;302.98;92.88;;;;;;;-2.82;84.90;99734.87;1764383;81;26728;-73
2021/12/09 07:35:35;;;;;;;416.15;133.78;;;;;;;-2.81;84.90;99730.00;1792188;79;21486;-73
2021/12/09 07:38:02;;;;;;;275.82;96.20;;;;;;;-2.81;84.91;99730.47;1792122;80;20958;-73
2021/12/09 07:40:28;;;;;;;177.02;68.65;;;;;;;-2.79;84.89;99725.53;1822384;78;20990;-73
2021/12/09 07:42:54;;;;;;;325.00;116.80;;;;;;;-2.79;84.90;99712.95;1791517;79;21172;-73
2021/12/09 07:45:20;;;;;;;217.45;80.50;;;;;;;-2.79;84.89;99721.63;1822761;77;27369;-73
2021/12/09 07:47:46;;;;;;;192.68;74.12;;;;;;;-2.75;84.87;99724.40;1796187;79;25895;-72
2021/12/09 07:50:15;;;;;;;191.37;74.40;;;;;;;-2.75;84.87;99733.53;1824898;78;28293;-73
2021/12/09 07:52:42;;;;;;;134.87;58.00;;;;;;;-2.74;84.87;99729.12;1814427;78;21462;-73
2021/12/09 07:55:09;;;;;;;132.57;57.65;;;;;;;-2.73;84.86;99746.45;1801208;78;21211;-74
2021/12/09 07:57:35;;;;;;;105.45;45.25;;;;;;;-2.71;84.86;99744.09;1781160;78;21012;-74
2021/12/09 08:00:03;;;;;;;83.10;38.83;;;;;;;-2.68;84.85;99745.23;1773672;80;21013;-74
2021/12/09 08:02:29;;;;;;;86.67;40.58;;;;;;;-2.68;84.85;99741.31;1818538;78;21023;-73
2021/12/09 08:04:55;;;;;;;129.07;49.00;;;;;;;-2.67;84.86;99754.70;1787775;80;21037;-73
2021/12/09 08:07:24;;;;;;;86.08;39.73;;;;;;;-2.65;84.84;99759.37;1785104;80;21823;-74
2021/12/09 08:09:51;;;;;;;86.92;38.23;;;;;;;-2.63;84.83;99719.64;1802719;79;21541;-73
2021/12/09 08:12:18;;;;;;;85.40;36.53;;;;;;;-2.64;84.82;99725.79;1775154;80;21027;-73
2021/12/09 08:14:44;;;;;;;77.35;34.63;;;;;;;-2.60;84.82;99704.23;1770219;81;21078;-73
2021/12/09 08:17:33;;;;;;;80.32;36.60;;;;;;;-2.59;84.83;99695.02;1786564;80;20966;-73
2021/12/09 08:19:40;;;;;;;71.95;32.58;;;;;;;-2.60;84.80;99680.28;1781551;80;21025;-73
2021/12/09 08:22:06;;;;;;;274.27;112.15;;;;;;;-2.60;84.80;99712.91;1785374;80;27192;-73
2021/12/09 08:24:32;;;;;;;147.93;57.10;;;;;;;-2.58;84.80;99748.89;1818597;78;21090;-73
2021/12/09 08:26:58;;;;;;;81.95;37.80;;;;;;;-2.54;84.80;99739.91;1768372;81;22721;-73
2021/12/09 08:29:24;;;;;;;72.82;33.92;;;;;;;-2.53;84.79;99738.11;1778367;80;21475;-73
2021/12/09 08:31:50;;;;;;;79.37;37.15;;;;;;;-2.54;84.78;99739.91;1802650;78;21138;-73
2021/12/09 08:34:16;;;;;;;77.37;34.80;;;;;;;-2.54;84.78;99733.86;1772642;79;26755;-73
2021/12/09 08:36:42;;;;;;;84.17;38.83;;;;;;;-2.54;84.75;99736.00;1811094;78;21136;-74
2021/12/09 08:39:08;;;;;;;86.97;40.15;;;;;;;-2.55;84.77;99743.45;1791432;80;28266;-74
2021/12/09 08:41:34;;;;;;;84.72;35.50;;;;;;;-2.52;84.74;99739.33;1791836;80;21017;-73
2021/12/09 08:44:00;;;;;;;76.87;35.83;;;;;;;-2.48;84.74;99728.67;1818570;78;22189;-73
2021/12/09 08:46:26;;;;;;;84.10;39.35;;;;;;;-2.47;84.70;99734.27;1783406;79;27076;-73
2021/12/09 08:48:53;;;;;;;77.35;36.33;;;;;;;-2.45;84.72;99731.91;1814640;77;25797;-73
2021/12/09 08:51:19;;;;;;;82.65;40.05;;;;;;;-2.41;84.71;99752.12;1811047;78;20984;-73
2021/12/09 08:53:46;;;;;;;75.35;37.13;;;;;;;-2.39;84.71;99760.70;1784437;80;21032;-73
2021/12/09 08:56:12;;;;;;;77.47;35.60;;;;;;;-2.39;84.68;99752.87;1789934;78;21856;-74
2021/12/09 08:58:38;;;;;;;79.80;36.90;;;;;;;-2.37;84.68;99743.98;1789064;79;26691;-73
2021/12/09 09:01:04;;;;;;;92.82;44.27;;;;;;;-2.36;84.67;99750.05;1817498;78;25810;-74
2021/12/09 09:03:30;;;;;;;76.05;36.10;;;;;;;-2.35;84.67;99744.70;1780614;80;21558;-73
2021/12/09 09:05:59;;;;;;;73.15;36.20;;;;;;;-2.31;84.67;99738.33;1776471;79;20970;-73
2021/12/09 09:08:25;;;;;;;82.55;38.98;;;;;;;-2.29;84.65;99738.24;1785453;79;21894;-73
2021/12/09 09:10:51;;;;;;;97.60;40.73;;;;;;;-2.25;84.66;99718.31;1786148;79;20987;-73
2021/12/09 09:13:17;;;;;;;104.03;44.20;;;;;;;-2.20;84.63;99732.38;1778333;79;26569;-73
2021/12/09 09:15:48;;;;;;;87.50;42.10;;;;;;;-2.17;84.65;99733.00;1778956;79;21036;-73
2021/12/09 09:18:11;;;;;;;82.15;38.33;;;;;;;-2.11;84.62;99729.95;1782202;79;21534;-73
2021/12/09 09:20:39;;;;;;;78.78;36.68;;;;;;;-2.05;84.63;99730.02;1779995;79;21061;-73
2021/12/09 09:23:12;;;;;;;79.10;38.02;;;;;;;-1.98;84.61;99740.40;1780412;79;21016;-73
2021/12/09 09:25:38;;;;;;;78.75;35.75;;;;;;;-1.93;84.60;99723.91;1781148;79;21036;-73
2021/12/09 09:28:04;;;;;;;79.22;38.48;;;;;;;-1.82;84.60;99710.94;1814770;78;21453;-73
2021/12/09 09:30:35;;;;;;;70.87;32.42;;;;;;;-1.75;84.57;99705.64;1802649;78;21559;-73
2021/12/09 09:33:10;;;;;;;79.87;36.35;;;;;;;-1.70;84.56;99711.37;1781845;79;21965;-73
2021/12/09 09:35:37;;;;;;;73.62;35.65;;;;;;;-1.68;84.54;99712.56;1776881;79;21871;-73
2021/12/09 09:38:04;;;;;;;84.55;38.65;;;;;;;-1.63;84.52;99703.46;1783865;79;21015;-74
2021/12/09 09:40:38;;;;;;;78.50;37.45;;;;;;;-1.54;84.50;99705.87;1780038;80;21045;-73
2021/12/09 09:43:05;;;;;;;81.08;37.10;;;;;;;-1.41;84.47;99700.61;1786677;78;20991;-73
2021/12/09 09:45:30;;;;;;;70.65;32.75;;;;;;;-1.27;84.47;99686.05;1780704;79;21096;-73
2021/12/09 09:47:56;;;;;;;85.70;40.78;;;;;;;-1.21;84.44;99675.97;1782529;79;21021;-73
2021/12/09 09:50:22;;;;;;;92.22;42.65;;;;;;;-1.20;84.38;99685.96;1809054;77;21231;-73
2021/12/09 09:52:48;;;;;;;82.25;40.65;;;;;;;-1.17;84.40;99695.72;1810906;78;20931;-73
2021/12/09 09:55:20;;;;;;;84.00;37.83;;;;;;;-1.13;84.36;99684.09;1818222;78;20984;-73
2021/12/09 09:57:43;;;;;;;76.65;37.08;;;;;;;-1.14;84.33;99690.26;1814299;78;21512;-73
2021/12/09 10:00:11;;;;;;;80.22;37.25;;;;;;;-1.19;84.29;99691.53;1784277;79;21424;-73
2021/12/09 10:02:36;;;;;;;104.25;43.78;;;;;;;-1.22;84.23;99691.76;1778029;79;21026;-73
2021/12/09 10:05:06;;;;;;;79.00;35.75;;;;;;;-1.20;84.22;99689.88;1754815;79;20932;-73
2021/12/09 10:07:33;;;;;;;80.42;36.35;;;;;;;-1.25;84.17;99682.36;1784931;79;20990;-73
2021/12/09 10:09:59;;;;;;;136.40;57.93;;;;;;;-1.24;84.13;99679.28;1780022;79;22222;-74
2021/12/09 10:12:25;;;;;;;98.22;41.40;;;;;;;-1.25;84.09;99694.61;1781036;79;21634;-73
2021/12/09 10:14:53;;;;;;;82.05;39.70;;;;;;;-1.28;84.07;99686.98;1782969;80;21049;-73
2021/12/09 10:17:22;;;;;;;97.88;45.28;;;;;;;-1.31;84.02;99688.52;1795754;78;21048;-73
2021/12/09 10:19:55;;;;;;;105.95;48.52;;;;;;;-1.34;83.98;99688.75;1804277;78;21009;-73
2021/12/09 10:22:31;;;;;;;116.05;45.73;;;;;;;-1.35;83.95;99685.77;1780172;78;21059;-73
2021/12/09 10:24:58;;;;;;;416.65;181.85;;;;;;;-1.33;83.92;99690.40;1778392;78;21025;-73
2021/12/09 10:27:31;;;;;;;287.65;112.50;;;;;;;-1.33;83.89;99689.09;1778088;79;21078;-73
2021/12/09 10:30:03;;;;;;;445.88;168.57;;;;;;;-1.36;83.85;99698.47;1786209;80;21077;-73
2021/12/09 10:32:32;;;;;;;150.22;62.23;;;;;;;-1.40;83.82;99710.09;1752611;79;21018;-74
2021/12/09 10:35:16;;;;;;;;;;;;;;;-1.37;83.80;99699.44;1777746;79;21209;-74
2021/12/09 10:37:45;;;;;;;405.13;150.60;;;;;;;-1.35;83.76;99708.00;1778172;79;20177;-73
2021/12/09 10:40:18;;;;;;;216.05;86.00;;;;;;;-1.32;83.74;99689.46;1770169;79;21408;-74
2021/12/09 10:42:52;;;;;;;174.00;73.57;;;;;;;-1.24;83.71;99711.97;1808011;78;21094;-74
2021/12/09 10:45:23;;;;;;;214.88;90.35;;;;;;;-1.12;83.70;99702.73;1798161;78;21543;-74
2021/12/09 10:48:05;;;;;;;275.93;124.07;;;;;;;-0.96;83.70;99705.06;1805829;78;21842;-73
2021/12/09 10:50:45;;;;;;;154.78;70.28;;;;;;;-0.90;83.68;99699.37;1780288;78;21052;-73
2021/12/09 10:55:51;;;;;;;159.80;64.82;;;;;;;-0.79;83.60;99687.63;1774130;79;20983;-73
2021/12/09 10:58:19;;;;;;;196.95;79.15;;;;;;;-0.75;83.56;99688.23;1774367;79;21479;-74
2021/12/09 11:00:52;;;;;;;140.22;60.20;;;;;;;-0.73;83.49;99675.38;1773587;79;21813;-73
2021/12/09 11:03:44;;;;;;;79.92;39.53;;;;;;;-0.72;83.48;99658.72;1779420;79;21165;-73
2021/12/09 11:06:23;;;;;;;89.05;41.02;;;;;;;-0.77;83.42;99675.24;1810070;78;21027;-73
2021/12/09 11:08:55;;;;;;;95.30;41.85;;;;;;;-0.87;83.38;99662.97;1775481;80;21062;-73
2021/12/09 11:11:34;;;;;;;96.75;41.65;;;;;;;-0.94;83.35;99655.22;1780146;79;21525;-73
2021/12/09 11:14:17;;;;;;;94.17;45.08;;;;;;;-0.97;83.32;99664.14;1784182;79;21050;-73
2021/12/09 11:16:50;;;;;;;91.70;43.68;;;;;;;-1.02;83.28;99678.03;1819849;78;20979;-73
2021/12/09 11:19:35;;;;;;;87.62;40.63;;;;;;;-1.02;83.25;99676.72;1779527;80;20967;-73
2021/12/09 11:22:00;;;;;;;88.78;41.85;;;;;;;-1.00;83.21;99669.61;1780969;79;21041;-74